気象予報士の航空気象 本日晴れ、されど乱気流に注意せよ。

*All archives   *Admin

2010.02.20 (Sat)

本日晴れ、されど乱気流に注意せよ。

RJTT 192036Z 1921/2024 34008KT 9999 FEW030 SCT060
BECMG 2003/2005 12008KT
BECMG 2009/2012 36010KT


 朝から太陽がでています。


ようやく、洗濯物が外に干せます。


ながいながい梅雨みたいな天気が終わりました。


気温も10度を超えそうです。


 午前9時の羽田のMETAR

RJTT 200000Z 36005KT 9999 FEW020 SCT050 06/M02 Q1015 RMK 1CU020 3SC050 A3000


空気が乾燥しているようです。


洗濯物は乾きますが、火の元注意です。


 気温と露点差が8℃。朝から広がっています。


今日は、4-6000ftでで少し揺れるかもしれません。



ブログランキングに参加しています。
にほんブログ村 環境ブログ 天気・気象学へ
にほんブログ村
応援クリックをおねがします。


以下、アフィリエイトサイトです。




スポンサーサイト
09:51  |  気象・天気  |  TB(0)  |  CM(0)  |  EDIT  |  Top↑

コメントを投稿する


 管理者だけに表示  (非公開コメント投稿可能)

▲PageTop

この記事のトラックバックURL

→http://weathereucalyptus.blog115.fc2.com/tb.php/401-1574c224
この記事にトラックバックする(FC2ブログユーザー)

この記事へのトラックバック

▲PageTop

 | BLOGTOP |